sensor_id;sensor_type;location;lat;lon;timestamp;temperature;humidity
65836;SHT30;52595;51.608;7.216;2022-10-18T00:00:46;15.15;99.76
65836;SHT30;52595;51.608;7.216;2022-10-18T00:03:12;15.12;99.68
65836;SHT30;52595;51.608;7.216;2022-10-18T00:05:37;15.11;99.67
65836;SHT30;52595;51.608;7.216;2022-10-18T00:08:03;15.12;99.65
65836;SHT30;52595;51.608;7.216;2022-10-18T00:10:28;15.07;99.61
65836;SHT30;52595;51.608;7.216;2022-10-18T00:12:54;15.07;99.61
65836;SHT30;52595;51.608;7.216;2022-10-18T00:15:19;15.08;99.69
65836;SHT30;52595;51.608;7.216;2022-10-18T00:17:44;15.05;99.65
65836;SHT30;52595;51.608;7.216;2022-10-18T00:20:10;15.05;99.76
65836;SHT30;52595;51.608;7.216;2022-10-18T00:22:37;15.05;99.78
65836;SHT30;52595;51.608;7.216;2022-10-18T00:25:04;15.07;99.81
65836;SHT30;52595;51.608;7.216;2022-10-18T00:27:30;15.08;99.77
65836;SHT30;52595;51.608;7.216;2022-10-18T00:29:56;15.05;99.79
65836;SHT30;52595;51.608;7.216;2022-10-18T00:32:22;15.05;99.78
65836;SHT30;52595;51.608;7.216;2022-10-18T00:34:48;15.05;99.86
65836;SHT30;52595;51.608;7.216;2022-10-18T00:37:13;15.05;99.96
65836;SHT30;52595;51.608;7.216;2022-10-18T00:39:39;15.05;99.99
65836;SHT30;52595;51.608;7.216;2022-10-18T00:42:04;15.07;99.90
65836;SHT30;52595;51.608;7.216;2022-10-18T00:46:58;15.03;99.95
65836;SHT30;52595;51.608;7.216;2022-10-18T00:49:32;15.04;99.95
65836;SHT30;52595;51.608;7.216;2022-10-18T00:52:01;15.07;99.98
65836;SHT30;52595;51.608;7.216;2022-10-18T00:54:30;15.07;99.99
65836;SHT30;52595;51.608;7.216;2022-10-18T00:56:57;15.04;99.99
65836;SHT30;52595;51.608;7.216;2022-10-18T00:59:23;15.04;99.99
65836;SHT30;52595;51.608;7.216;2022-10-18T01:01:48;15.04;99.99
65836;SHT30;52595;51.608;7.216;2022-10-18T01:04:15;15.03;99.99
65836;SHT30;52595;51.608;7.216;2022-10-18T01:09:29;15.01;99.99
65836;SHT30;52595;51.608;7.216;2022-10-18T01:14:58;15.03;99.99
65836;SHT30;52595;51.608;7.216;2022-10-18T01:17:37;15.03;99.99
65836;SHT30;52595;51.608;7.216;2022-10-18T01:20:37;15.03;99.99
65836;SHT30;52595;51.608;7.216;2022-10-18T01:31:26;15.03;99.99
65836;SHT30;52595;51.608;7.216;2022-10-18T01:33:59;14.98;99.99
65836;SHT30;52595;51.608;7.216;2022-10-18T01:36:38;14.97;99.99
65836;SHT30;52595;51.608;7.216;2022-10-18T01:39:07;14.95;99.99
65836;SHT30;52595;51.608;7.216;2022-10-18T01:41:37;14.95;99.99
65836;SHT30;52595;51.608;7.216;2022-10-18T01:44:06;14.93;99.99
65836;SHT30;52595;51.608;7.216;2022-10-18T01:46:32;14.87;99.99
65836;SHT30;52595;51.608;7.216;2022-10-18T01:48:59;14.85;99.99
65836;SHT30;52595;51.608;7.216;2022-10-18T01:51:31;14.83;99.99
65836;SHT30;52595;51.608;7.216;2022-10-18T01:53:57;14.79;99.99
65836;SHT30;52595;51.608;7.216;2022-10-18T01:56:25;14.77;99.99
65836;SHT30;52595;51.608;7.216;2022-10-18T02:02:08;14.70;99.99
65836;SHT30;52595;51.608;7.216;2022-10-18T02:04:45;14.72;99.99
65836;SHT30;52595;51.608;7.216;2022-10-18T02:07:20;14.73;99.99
65836;SHT30;52595;51.608;7.216;2022-10-18T02:10:02;14.76;99.99
65836;SHT30;52595;51.608;7.216;2022-10-18T02:12:32;14.74;99.99
65836;SHT30;52595;51.608;7.216;2022-10-18T02:14:59;14.79;99.99
65836;SHT30;52595;51.608;7.216;2022-10-18T02:17:27;14.81;99.99
65836;SHT30;52595;51.608;7.216;2022-10-18T02:19:55;14.81;99.99
65836;SHT30;52595;51.608;7.216;2022-10-18T02:22:21;14.80;99.99
65836;SHT30;52595;51.608;7.216;2022-10-18T02:24:50;14.83;99.99
65836;SHT30;52595;51.608;7.216;2022-10-18T02:27:17;14.84;99.99
65836;SHT30;52595;51.608;7.216;2022-10-18T02:29:43;14.83;99.99
65836;SHT30;52595;51.608;7.216;2022-10-18T02:32:26;14.84;99.99
65836;SHT30;52595;51.608;7.216;2022-10-18T02:34:57;14.84;99.99
65836;SHT30;52595;51.608;7.216;2022-10-18T02:37:29;14.84;99.99
65836;SHT30;52595;51.608;7.216;2022-10-18T02:39:55;14.80;99.99
65836;SHT30;52595;51.608;7.216;2022-10-18T02:42:21;14.80;99.99
65836;SHT30;52595;51.608;7.216;2022-10-18T02:44:46;14.79;99.99
65836;SHT30;52595;51.608;7.216;2022-10-18T02:47:12;14.76;99.99
65836;SHT30;52595;51.608;7.216;2022-10-18T02:49:37;14.76;99.99
65836;SHT30;52595;51.608;7.216;2022-10-18T02:52:02;14.77;99.99
65836;SHT30;52595;51.608;7.216;2022-10-18T02:54:28;14.76;99.99
65836;SHT30;52595;51.608;7.216;2022-10-18T02:56:53;14.80;99.99
65836;SHT30;52595;51.608;7.216;2022-10-18T02:59:20;14.79;99.99
65836;SHT30;52595;51.608;7.216;2022-10-18T03:01:45;14.83;99.99
65836;SHT30;52595;51.608;7.216;2022-10-18T03:04:11;14.81;99.99
65836;SHT30;52595;51.608;7.216;2022-10-18T03:06:36;14.81;99.99
65836;SHT30;52595;51.608;7.216;2022-10-18T03:09:03;14.83;99.99
65836;SHT30;52595;51.608;7.216;2022-10-18T03:11:29;14.79;99.99
65836;SHT30;52595;51.608;7.216;2022-10-18T03:13:54;14.83;99.99
65836;SHT30;52595;51.608;7.216;2022-10-18T03:16:20;14.83;99.99
65836;SHT30;52595;51.608;7.216;2022-10-18T03:18:45;14.87;99.99
65836;SHT30;52595;51.608;7.216;2022-10-18T03:21:11;14.84;99.99
65836;SHT30;52595;51.608;7.216;2022-10-18T03:23:36;14.80;99.99
65836;SHT30;52595;51.608;7.216;2022-10-18T03:26:02;14.77;99.99
65836;SHT30;52595;51.608;7.216;2022-10-18T03:28:27;14.77;99.99
65836;SHT30;52595;51.608;7.216;2022-10-18T03:30:59;14.77;99.99
65836;SHT30;52595;51.608;7.216;2022-10-18T03:33:24;14.74;99.99
65836;SHT30;52595;51.608;7.216;2022-10-18T03:35:50;14.77;99.99
65836;SHT30;52595;51.608;7.216;2022-10-18T03:38:15;14.77;99.99
65836;SHT30;52595;51.608;7.216;2022-10-18T03:40:40;14.72;99.99
65836;SHT30;52595;51.608;7.216;2022-10-18T03:43:06;14.72;99.99
65836;SHT30;52595;51.608;7.216;2022-10-18T03:45:31;14.72;99.99
65836;SHT30;52595;51.608;7.216;2022-10-18T03:47:56;14.69;99.99
65836;SHT30;52595;51.608;7.216;2022-10-18T03:50:22;14.69;99.99
65836;SHT30;52595;51.608;7.216;2022-10-18T03:52:47;14.69;99.99
65836;SHT30;52595;51.608;7.216;2022-10-18T03:55:12;14.69;99.99
65836;SHT30;52595;51.608;7.216;2022-10-18T03:57:38;14.72;99.99
65836;SHT30;52595;51.608;7.216;2022-10-18T04:00:03;14.69;99.99
65836;SHT30;52595;51.608;7.216;2022-10-18T04:02:29;14.69;99.99
65836;SHT30;52595;51.608;7.216;2022-10-18T04:04:54;14.66;99.99
65836;SHT30;52595;51.608;7.216;2022-10-18T04:07:22;14.67;99.99
65836;SHT30;52595;51.608;7.216;2022-10-18T04:09:48;14.63;99.99
65836;SHT30;52595;51.608;7.216;2022-10-18T04:12:13;14.64;99.99
65836;SHT30;52595;51.608;7.216;2022-10-18T04:14:38;14.64;99.99
65836;SHT30;52595;51.608;7.216;2022-10-18T04:17:04;14.67;99.99
65836;SHT30;52595;51.608;7.216;2022-10-18T04:19:29;14.69;99.99
65836;SHT30;52595;51.608;7.216;2022-10-18T04:21:54;14.69;99.99
65836;SHT30;52595;51.608;7.216;2022-10-18T04:24:20;14.69;99.99
65836;SHT30;52595;51.608;7.216;2022-10-18T04:26:45;14.70;99.99
65836;SHT30;52595;51.608;7.216;2022-10-18T04:29:11;14.72;99.99
65836;SHT30;52595;51.608;7.216;2022-10-18T04:31:36;14.70;99.99
65836;SHT30;52595;51.608;7.216;2022-10-18T04:34:01;14.70;99.99
65836;SHT30;52595;51.608;7.216;2022-10-18T04:36:29;14.70;99.99
65836;SHT30;52595;51.608;7.216;2022-10-18T04:38:54;14.72;99.99
65836;SHT30;52595;51.608;7.216;2022-10-18T04:41:20;14.69;99.99
65836;SHT30;52595;51.608;7.216;2022-10-18T04:43:45;14.73;99.99
65836;SHT30;52595;51.608;7.216;2022-10-18T04:46:10;14.74;99.99
65836;SHT30;52595;51.608;7.216;2022-10-18T04:48:36;14.72;99.99
65836;SHT30;52595;51.608;7.216;2022-10-18T04:51:01;14.69;99.99
65836;SHT30;52595;51.608;7.216;2022-10-18T04:53:27;14.66;99.99
65836;SHT30;52595;51.608;7.216;2022-10-18T04:55:52;14.66;99.99
65836;SHT30;52595;51.608;7.216;2022-10-18T04:58:18;14.70;99.99
65836;SHT30;52595;51.608;7.216;2022-10-18T05:00:43;14.70;99.99
65836;SHT30;52595;51.608;7.216;2022-10-18T05:03:11;14.69;99.99
65836;SHT30;52595;51.608;7.216;2022-10-18T05:05:36;14.66;99.99
65836;SHT30;52595;51.608;7.216;2022-10-18T05:08:02;14.62;99.99
65836;SHT30;52595;51.608;7.216;2022-10-18T05:10:27;14.64;99.99
65836;SHT30;52595;51.608;7.216;2022-10-18T05:12:53;14.63;99.99
65836;SHT30;52595;51.608;7.216;2022-10-18T05:15:18;14.64;99.99
65836;SHT30;52595;51.608;7.216;2022-10-18T05:17:43;14.69;99.99
65836;SHT30;52595;51.608;7.216;2022-10-18T05:20:09;14.67;99.99
65836;SHT30;52595;51.608;7.216;2022-10-18T05:22:34;14.67;99.99
65836;SHT30;52595;51.608;7.216;2022-10-18T05:25:00;14.70;99.99
65836;SHT30;52595;51.608;7.216;2022-10-18T05:27:27;14.72;99.99
65836;SHT30;52595;51.608;7.216;2022-10-18T05:29:52;14.73;99.99
65836;SHT30;52595;51.608;7.216;2022-10-18T05:32:18;14.74;99.99
65836;SHT30;52595;51.608;7.216;2022-10-18T05:34:43;14.73;99.99
65836;SHT30;52595;51.608;7.216;2022-10-18T05:37:08;14.70;99.99
65836;SHT30;52595;51.608;7.216;2022-10-18T05:39:36;14.69;99.99
65836;SHT30;52595;51.608;7.216;2022-10-18T05:42:01;14.69;99.99
65836;SHT30;52595;51.608;7.216;2022-10-18T05:44:26;14.70;99.99
65836;SHT30;52595;51.608;7.216;2022-10-18T05:46:52;14.70;99.99
65836;SHT30;52595;51.608;7.216;2022-10-18T05:49:18;14.69;99.99
65836;SHT30;52595;51.608;7.216;2022-10-18T05:51:43;14.69;99.99
65836;SHT30;52595;51.608;7.216;2022-10-18T05:54:12;14.67;99.99
65836;SHT30;52595;51.608;7.216;2022-10-18T05:56:38;14.67;99.99
65836;SHT30;52595;51.608;7.216;2022-10-18T05:59:04;14.69;99.99
65836;SHT30;52595;51.608;7.216;2022-10-18T06:01:34;14.66;99.99
65836;SHT30;52595;51.608;7.216;2022-10-18T06:03:59;14.69;99.99
65836;SHT30;52595;51.608;7.216;2022-10-18T06:06:25;14.62;99.99
65836;SHT30;52595;51.608;7.216;2022-10-18T06:08:50;14.57;99.99
65836;SHT30;52595;51.608;7.216;2022-10-18T06:11:17;14.56;99.99
65836;SHT30;52595;51.608;7.216;2022-10-18T06:13:44;14.53;99.99
65836;SHT30;52595;51.608;7.216;2022-10-18T06:16:11;14.53;99.99
65836;SHT30;52595;51.608;7.216;2022-10-18T06:18:37;14.53;99.99
65836;SHT30;52595;51.608;7.216;2022-10-18T06:21:03;14.53;99.99
65836;SHT30;52595;51.608;7.216;2022-10-18T06:23:28;14.57;99.99
65836;SHT30;52595;51.608;7.216;2022-10-18T06:26:02;14.53;99.99
65836;SHT30;52595;51.608;7.216;2022-10-18T06:28:29;14.57;99.99
65836;SHT30;52595;51.608;7.216;2022-10-18T06:30:57;14.60;99.99
65836;SHT30;52595;51.608;7.216;2022-10-18T06:33:23;14.64;99.99
65836;SHT30;52595;51.608;7.216;2022-10-18T06:35:59;14.67;99.99
65836;SHT30;52595;51.608;7.216;2022-10-18T06:38:26;14.79;99.99
65836;SHT30;52595;51.608;7.216;2022-10-18T06:40:52;14.79;99.99
65836;SHT30;52595;51.608;7.216;2022-10-18T06:43:17;14.80;99.99
65836;SHT30;52595;51.608;7.216;2022-10-18T06:45:43;14.76;99.99
65836;SHT30;52595;51.608;7.216;2022-10-18T06:48:08;14.76;99.99
65836;SHT30;52595;51.608;7.216;2022-10-18T06:50:33;14.74;99.99
65836;SHT30;52595;51.608;7.216;2022-10-18T06:52:59;14.77;99.99
65836;SHT30;52595;51.608;7.216;2022-10-18T06:55:25;14.74;99.99
65836;SHT30;52595;51.608;7.216;2022-10-18T06:57:52;14.76;99.99
65836;SHT30;52595;51.608;7.216;2022-10-18T07:00:17;14.79;99.99
65836;SHT30;52595;51.608;7.216;2022-10-18T07:02:42;14.76;99.99
65836;SHT30;52595;51.608;7.216;2022-10-18T07:05:08;14.80;99.99
65836;SHT30;52595;51.608;7.216;2022-10-18T07:07:34;14.80;99.99
65836;SHT30;52595;51.608;7.216;2022-10-18T07:09:59;14.81;99.99
65836;SHT30;52595;51.608;7.216;2022-10-18T07:12:25;14.83;99.99
65836;SHT30;52595;51.608;7.216;2022-10-18T07:14:50;14.81;99.99
65836;SHT30;52595;51.608;7.216;2022-10-18T07:17:15;14.85;99.99
65836;SHT30;52595;51.608;7.216;2022-10-18T07:19:41;14.84;99.99
65836;SHT30;52595;51.608;7.216;2022-10-18T07:22:06;14.90;99.99
65836;SHT30;52595;51.608;7.216;2022-10-18T07:24:32;14.93;99.99
65836;SHT30;52595;51.608;7.216;2022-10-18T07:26:57;14.93;99.99
65836;SHT30;52595;51.608;7.216;2022-10-18T07:29:22;14.95;99.99
65836;SHT30;52595;51.608;7.216;2022-10-18T07:31:48;15.01;99.99
65836;SHT30;52595;51.608;7.216;2022-10-18T07:34:13;15.08;99.99
65836;SHT30;52595;51.608;7.216;2022-10-18T07:36:39;15.23;99.99
65836;SHT30;52595;51.608;7.216;2022-10-18T07:39:05;15.30;99.99
65836;SHT30;52595;51.608;7.216;2022-10-18T07:41:31;15.31;99.99
65836;SHT30;52595;51.608;7.216;2022-10-18T07:43:58;15.31;99.99
65836;SHT30;52595;51.608;7.216;2022-10-18T07:46:24;15.32;99.99
65836;SHT30;52595;51.608;7.216;2022-10-18T07:48:51;15.32;99.99
65836;SHT30;52595;51.608;7.216;2022-10-18T07:51:18;15.28;99.99
65836;SHT30;52595;51.608;7.216;2022-10-18T07:53:43;15.35;99.99
65836;SHT30;52595;51.608;7.216;2022-10-18T07:56:15;15.37;99.99
65836;SHT30;52595;51.608;7.216;2022-10-18T07:58:44;15.27;99.99
65836;SHT30;52595;51.608;7.216;2022-10-18T08:01:10;15.25;99.99
65836;SHT30;52595;51.608;7.216;2022-10-18T08:03:36;15.27;99.99
65836;SHT30;52595;51.608;7.216;2022-10-18T08:06:03;15.23;99.99
65836;SHT30;52595;51.608;7.216;2022-10-18T08:08:29;15.18;99.99
65836;SHT30;52595;51.608;7.216;2022-10-18T08:10:54;15.18;99.99
65836;SHT30;52595;51.608;7.216;2022-10-18T08:13:20;15.27;99.99
65836;SHT30;52595;51.608;7.216;2022-10-18T08:15:46;15.28;99.99
65836;SHT30;52595;51.608;7.216;2022-10-18T08:18:12;15.28;99.99
65836;SHT30;52595;51.608;7.216;2022-10-18T08:20:42;15.12;99.99
65836;SHT30;52595;51.608;7.216;2022-10-18T08:23:07;15.11;99.99
65836;SHT30;52595;51.608;7.216;2022-10-18T08:25:33;15.15;99.99
65836;SHT30;52595;51.608;7.216;2022-10-18T08:27:58;15.20;99.99
65836;SHT30;52595;51.608;7.216;2022-10-18T08:30:25;15.18;99.99
65836;SHT30;52595;51.608;7.216;2022-10-18T08:32:51;15.11;99.99
65836;SHT30;52595;51.608;7.216;2022-10-18T08:35:16;15.03;99.99
65836;SHT30;52595;51.608;7.216;2022-10-18T08:37:42;14.98;99.99
65836;SHT30;52595;51.608;7.216;2022-10-18T08:40:12;14.93;99.99
65836;SHT30;52595;51.608;7.216;2022-10-18T08:43:06;14.94;99.99
65836;SHT30;52595;51.608;7.216;2022-10-18T08:45:37;14.93;99.99
65836;SHT30;52595;51.608;7.216;2022-10-18T08:48:04;14.94;99.99
65836;SHT30;52595;51.608;7.216;2022-10-18T08:50:33;15.01;99.99
65836;SHT30;52595;51.608;7.216;2022-10-18T08:53:21;15.15;99.99
65836;SHT30;52595;51.608;7.216;2022-10-18T08:55:57;15.27;99.99
65836;SHT30;52595;51.608;7.216;2022-10-18T08:58:30;15.21;99.99
65836;SHT30;52595;51.608;7.216;2022-10-18T09:06:11;15.63;99.99
65836;SHT30;52595;51.608;7.216;2022-10-18T09:19:57;15.65;99.99
65836;SHT30;52595;51.608;7.216;2022-10-18T09:25:10;15.86;98.76
65836;SHT30;52595;51.608;7.216;2022-10-18T09:36:08;16.77;94.46
65836;SHT30;52595;51.608;7.216;2022-10-18T09:38:10;17.03;92.94
65836;SHT30;52595;51.608;7.216;2022-10-18T09:40:45;16.91;92.86
65836;SHT30;52595;51.608;7.216;2022-10-18T09:43:23;16.94;92.08
65836;SHT30;52595;51.608;7.216;2022-10-18T09:45:51;17.04;92.66
65836;SHT30;52595;51.608;7.216;2022-10-18T09:48:28;17.12;91.46
65836;SHT30;52595;51.608;7.216;2022-10-18T09:51:04;17.36;91.09
65836;SHT30;52595;51.608;7.216;2022-10-18T09:56:27;17.28;90.03
65836;SHT30;52595;51.608;7.216;2022-10-18T09:58:54;17.08;90.03
65836;SHT30;52595;51.608;7.216;2022-10-18T10:01:28;17.03;90.78
65836;SHT30;52595;51.608;7.216;2022-10-18T10:03:53;17.11;89.22
65836;SHT30;52595;51.608;7.216;2022-10-18T10:06:30;17.40;89.90
65836;SHT30;52595;51.608;7.216;2022-10-18T10:09:00;18.00;88.63
65836;SHT30;52595;51.608;7.216;2022-10-18T10:11:35;18.34;87.09
65836;SHT30;52595;51.608;7.216;2022-10-18T10:19:27;17.83;85.84
65836;SHT30;52595;51.608;7.216;2022-10-18T10:22:02;17.76;86.68
65836;SHT30;52595;51.608;7.216;2022-10-18T10:24:36;17.69;85.27
65836;SHT30;52595;51.608;7.216;2022-10-18T10:27:11;17.83;86.30
65836;SHT30;52595;51.608;7.216;2022-10-18T10:32:12;18.02;83.79
65836;SHT30;52595;51.608;7.216;2022-10-18T10:34:38;18.37;83.47
65836;SHT30;52595;51.608;7.216;2022-10-18T10:40:04;18.96;81.16
65836;SHT30;52595;51.608;7.216;2022-10-18T10:42:30;19.14;80.96
65836;SHT30;52595;51.608;7.216;2022-10-18T10:44:57;19.50;80.42
65836;SHT30;52595;51.608;7.216;2022-10-18T10:47:32;20.41;76.94
65836;SHT30;52595;51.608;7.216;2022-10-18T10:49:58;20.40;75.61
65836;SHT30;52595;51.608;7.216;2022-10-18T10:52:27;20.49;73.76
65836;SHT30;52595;51.608;7.216;2022-10-18T10:54:54;20.06;75.35
65836;SHT30;52595;51.608;7.216;2022-10-18T10:57:23;21.02;73.55
65836;SHT30;52595;51.608;7.216;2022-10-18T10:59:52;21.61;71.56
65836;SHT30;52595;51.608;7.216;2022-10-18T11:02:29;22.31;67.90
65836;SHT30;52595;51.608;7.216;2022-10-18T11:04:56;23.29;66.00
65836;SHT30;52595;51.608;7.216;2022-10-18T11:07:41;22.64;66.30
65836;SHT30;52595;51.608;7.216;2022-10-18T11:12:52;22.89;64.91
65836;SHT30;52595;51.608;7.216;2022-10-18T11:15:28;21.91;67.87
65836;SHT30;52595;51.608;7.216;2022-10-18T11:18:16;21.76;67.60
65836;SHT30;52595;51.608;7.216;2022-10-18T11:20:54;22.71;67.70
65836;SHT30;52595;51.608;7.216;2022-10-18T11:23:26;23.54;64.01
65836;SHT30;52595;51.608;7.216;2022-10-18T11:47:52;24.45;59.95
65836;SHT30;52595;51.608;7.216;2022-10-18T11:53:11;24.54;57.97
65836;SHT30;52595;51.608;7.216;2022-10-18T11:56:20;22.84;62.69
65836;SHT30;52595;51.608;7.216;2022-10-18T12:04:11;22.81;62.68
65836;SHT30;52595;51.608;7.216;2022-10-18T12:06:40;22.84;62.46
65836;SHT30;52595;51.608;7.216;2022-10-18T12:11:50;24.05;57.65
65836;SHT30;52595;51.608;7.216;2022-10-18T12:14:21;23.59;59.26
65836;SHT30;52595;51.608;7.216;2022-10-18T12:16:48;22.81;60.80
65836;SHT30;52595;51.608;7.216;2022-10-18T12:19:19;23.74;59.92
65836;SHT30;52595;51.608;7.216;2022-10-18T12:21:45;23.43;58.46
65836;SHT30;52595;51.608;7.216;2022-10-18T12:24:14;22.33;63.64
65836;SHT30;52595;51.608;7.216;2022-10-18T12:26:42;21.98;64.30
65836;SHT30;52595;51.608;7.216;2022-10-18T12:31:56;24.29;59.78
65836;SHT30;52595;51.608;7.216;2022-10-18T12:34:24;25.12;54.93
65836;SHT30;52595;51.608;7.216;2022-10-18T12:37:16;25.40;52.70
65836;SHT30;52595;51.608;7.216;2022-10-18T12:40:01;25.88;52.81
65836;SHT30;52595;51.608;7.216;2022-10-18T12:42:30;24.61;55.46
65836;SHT30;52595;51.608;7.216;2022-10-18T12:47:44;24.79;56.31
65836;SHT30;52595;51.608;7.216;2022-10-18T12:50:29;24.25;56.02
65836;SHT30;52595;51.608;7.216;2022-10-18T12:55:42;23.97;55.51
65836;SHT30;52595;51.608;7.216;2022-10-18T13:14:14;21.56;60.55
65836;SHT30;52595;51.608;7.216;2022-10-18T13:19:52;21.90;59.42
65836;SHT30;52595;51.608;7.216;2022-10-18T13:25:33;19.73;64.93
65836;SHT30;52595;51.608;7.216;2022-10-18T13:28:24;20.45;62.71
65836;SHT30;52595;51.608;7.216;2022-10-18T13:31:18;19.42;65.88
65836;SHT30;52595;51.608;7.216;2022-10-18T13:33:45;18.85;66.26
65836;SHT30;52595;51.608;7.216;2022-10-18T13:42:27;20.86;58.68
65836;SHT30;52595;51.608;7.216;2022-10-18T13:44:33;20.64;59.51
65836;SHT30;52595;51.608;7.216;2022-10-18T13:52:25;21.35;55.78
65836;SHT30;52595;51.608;7.216;2022-10-18T14:01:06;23.64;50.77
65836;SHT30;52595;51.608;7.216;2022-10-18T14:06:14;23.60;50.88
65836;SHT30;52595;51.608;7.216;2022-10-18T14:11:30;23.84;49.26
65836;SHT30;52595;51.608;7.216;2022-10-18T14:16:48;23.71;47.71
65836;SHT30;52595;51.608;7.216;2022-10-18T14:19:33;24.39;46.11
65836;SHT30;52595;51.608;7.216;2022-10-18T14:22:15;24.07;46.07
65836;SHT30;52595;51.608;7.216;2022-10-18T14:24:48;24.10;44.53
65836;SHT30;52595;51.608;7.216;2022-10-18T14:27:23;24.80;45.11
65836;SHT30;52595;51.608;7.216;2022-10-18T14:29:50;25.05;43.74
65836;SHT30;52595;51.608;7.216;2022-10-18T14:32:31;25.60;42.58
65836;SHT30;52595;51.608;7.216;2022-10-18T14:34:56;24.99;44.99
65836;SHT30;52595;51.608;7.216;2022-10-18T14:37:28;26.04;43.25
65836;SHT30;52595;51.608;7.216;2022-10-18T14:39:54;25.90;42.54
65836;SHT30;52595;51.608;7.216;2022-10-18T14:42:24;26.46;41.60
65836;SHT30;52595;51.608;7.216;2022-10-18T14:44:54;25.63;43.33
65836;SHT30;52595;51.608;7.216;2022-10-18T14:47:27;24.75;45.15
65836;SHT30;52595;51.608;7.216;2022-10-18T14:49:54;24.34;45.48
65836;SHT30;52595;51.608;7.216;2022-10-18T14:52:40;24.29;46.56
65836;SHT30;52595;51.608;7.216;2022-10-18T14:55:23;23.88;47.10
65836;SHT30;52595;51.608;7.216;2022-10-18T14:57:48;24.24;47.15
65836;SHT30;52595;51.608;7.216;2022-10-18T15:00:22;24.00;46.76
65836;SHT30;52595;51.608;7.216;2022-10-18T15:02:50;24.15;47.58
65836;SHT30;52595;51.608;7.216;2022-10-18T15:07:42;23.64;48.50
65836;SHT30;52595;51.608;7.216;2022-10-18T15:10:15;23.12;49.86
65836;SHT30;52595;51.608;7.216;2022-10-18T15:12:42;23.08;49.97
65836;SHT30;52595;51.608;7.216;2022-10-18T15:15:20;23.45;49.45
65836;SHT30;52595;51.608;7.216;2022-10-18T15:17:47;23.45;50.30
65836;SHT30;52595;51.608;7.216;2022-10-18T15:20:22;23.59;49.66
65836;SHT30;52595;51.608;7.216;2022-10-18T15:22:49;23.36;49.94
65836;SHT30;52595;51.608;7.216;2022-10-18T15:25:16;23.33;49.51
65836;SHT30;52595;51.608;7.216;2022-10-18T15:27:44;22.91;50.30
65836;SHT30;52595;51.608;7.216;2022-10-18T15:30:16;22.72;49.91
65836;SHT30;52595;51.608;7.216;2022-10-18T15:35:23;22.28;51.46
65836;SHT30;52595;51.608;7.216;2022-10-18T15:37:50;22.13;51.85
65836;SHT30;52595;51.608;7.216;2022-10-18T15:40:30;22.07;52.10
65836;SHT30;52595;51.608;7.216;2022-10-18T15:42:59;22.18;52.39
65836;SHT30;52595;51.608;7.216;2022-10-18T15:50:42;21.30;53.94
65836;SHT30;52595;51.608;7.216;2022-10-18T15:55:47;20.65;55.85
65836;SHT30;52595;51.608;7.216;2022-10-18T15:58:36;20.13;56.65
65836;SHT30;52595;51.608;7.216;2022-10-18T16:01:02;19.20;58.14
65836;SHT30;52595;51.608;7.216;2022-10-18T16:03:32;18.29;61.21
65836;SHT30;52595;51.608;7.216;2022-10-18T16:06:03;17.62;63.71
65836;SHT30;52595;51.608;7.216;2022-10-18T16:08:29;17.39;64.29
65836;SHT30;52595;51.608;7.216;2022-10-18T16:10:57;17.10;65.58
65836;SHT30;52595;51.608;7.216;2022-10-18T16:13:24;16.88;65.99
65836;SHT30;52595;51.608;7.216;2022-10-18T16:15:49;16.73;66.84
65836;SHT30;52595;51.608;7.216;2022-10-18T16:18:18;16.54;67.45
65836;SHT30;52595;51.608;7.216;2022-10-18T16:20:44;16.33;68.23
65836;SHT30;52595;51.608;7.216;2022-10-18T16:23:19;16.20;68.88
65836;SHT30;52595;51.608;7.216;2022-10-18T16:25:45;16.05;69.28
65836;SHT30;52595;51.608;7.216;2022-10-18T16:28:16;15.93;69.65
65836;SHT30;52595;51.608;7.216;2022-10-18T16:30:44;15.81;70.48
65836;SHT30;52595;51.608;7.216;2022-10-18T16:33:10;15.63;71.06
65836;SHT30;52595;51.608;7.216;2022-10-18T16:35:35;15.45;72.72
65836;SHT30;52595;51.608;7.216;2022-10-18T16:38:01;15.24;73.44
65836;SHT30;52595;51.608;7.216;2022-10-18T16:40:26;15.03;74.22
65836;SHT30;52595;51.608;7.216;2022-10-18T16:42:52;14.80;75.24
65836;SHT30;52595;51.608;7.216;2022-10-18T16:45:18;14.64;77.20
65836;SHT30;52595;51.608;7.216;2022-10-18T16:47:43;14.55;78.96
65836;SHT30;52595;51.608;7.216;2022-10-18T16:50:15;14.36;79.89
65836;SHT30;52595;51.608;7.216;2022-10-18T16:52:41;14.22;80.68
65836;SHT30;52595;51.608;7.216;2022-10-18T16:55:07;14.05;81.70
65836;SHT30;52595;51.608;7.216;2022-10-18T16:57:39;13.88;82.47
65836;SHT30;52595;51.608;7.216;2022-10-18T17:00:05;13.77;82.72
65836;SHT30;52595;51.608;7.216;2022-10-18T17:02:31;13.69;83.12
65836;SHT30;52595;51.608;7.216;2022-10-18T17:04:56;13.65;83.11
65836;SHT30;52595;51.608;7.216;2022-10-18T17:07:23;13.54;83.03
65836;SHT30;52595;51.608;7.216;2022-10-18T17:09:49;13.43;83.78
65836;SHT30;52595;51.608;7.216;2022-10-18T17:12:14;13.28;84.64
65836;SHT30;52595;51.608;7.216;2022-10-18T17:14:39;13.15;85.00
65836;SHT30;52595;51.608;7.216;2022-10-18T17:17:05;12.99;85.40
65836;SHT30;52595;51.608;7.216;2022-10-18T17:19:33;12.87;85.92
65836;SHT30;52595;51.608;7.216;2022-10-18T17:21:59;12.80;86.12
65836;SHT30;52595;51.608;7.216;2022-10-18T17:24:24;12.70;86.69
65836;SHT30;52595;51.608;7.216;2022-10-18T17:26:49;12.69;87.11
65836;SHT30;52595;51.608;7.216;2022-10-18T17:29:15;12.60;87.26
65836;SHT30;52595;51.608;7.216;2022-10-18T17:31:40;12.57;88.20
65836;SHT30;52595;51.608;7.216;2022-10-18T17:34:06;12.52;88.33
65836;SHT30;52595;51.608;7.216;2022-10-18T17:36:32;12.46;87.66
65836;SHT30;52595;51.608;7.216;2022-10-18T17:38:58;12.29;88.10
65836;SHT30;52595;51.608;7.216;2022-10-18T17:41:23;12.21;88.58
65836;SHT30;52595;51.608;7.216;2022-10-18T17:43:49;12.12;89.29
65836;SHT30;52595;51.608;7.216;2022-10-18T17:46:15;12.15;89.27
65836;SHT30;52595;51.608;7.216;2022-10-18T17:48:41;12.09;89.16
65836;SHT30;52595;51.608;7.216;2022-10-18T17:51:12;12.14;89.25
65836;SHT30;52595;51.608;7.216;2022-10-18T17:53:37;12.04;89.13
65836;SHT30;52595;51.608;7.216;2022-10-18T17:56:04;11.92;89.23
65836;SHT30;52595;51.608;7.216;2022-10-18T17:58:30;11.82;89.41
65836;SHT30;52595;51.608;7.216;2022-10-18T18:00:56;11.73;89.84
65836;SHT30;52595;51.608;7.216;2022-10-18T18:03:21;11.71;90.70
65836;SHT30;52595;51.608;7.216;2022-10-18T18:05:46;11.61;90.07
65836;SHT30;52595;51.608;7.216;2022-10-18T18:08:13;11.53;90.98
65836;SHT30;52595;51.608;7.216;2022-10-18T18:10:39;11.47;90.64
65836;SHT30;52595;51.608;7.216;2022-10-18T18:13:04;11.38;91.12
65836;SHT30;52595;51.608;7.216;2022-10-18T18:15:30;11.34;91.64
65836;SHT30;52595;51.608;7.216;2022-10-18T18:17:55;11.43;91.58
65836;SHT30;52595;51.608;7.216;2022-10-18T18:20:21;11.41;91.38
65836;SHT30;52595;51.608;7.216;2022-10-18T18:22:49;11.37;91.44